sensor_id;sensor_type;location;lat;lon;timestamp;P1;durP1;ratioP1;P2;durP2;ratioP2
61383;SDS011;63511;49.346;8.798;2022-10-16T00:01:17;3.25;;;1.73;;
61383;SDS011;63511;49.346;8.798;2022-10-16T00:03:44;4.15;;;2.22;;
61383;SDS011;63511;49.346;8.798;2022-10-16T00:06:12;2.70;;;1.80;;
61383;SDS011;63511;49.346;8.798;2022-10-16T00:08:38;5.15;;;1.70;;
61383;SDS011;63511;49.346;8.798;2022-10-16T00:11:16;4.45;;;2.30;;
61383;SDS011;63511;49.346;8.798;2022-10-16T00:13:48;2.10;;;1.63;;
61383;SDS011;63511;49.346;8.798;2022-10-16T00:16:16;7.05;;;1.55;;
61383;SDS011;63511;49.346;8.798;2022-10-16T00:18:43;5.30;;;2.20;;
61383;SDS011;63511;49.346;8.798;2022-10-16T00:21:13;2.53;;;1.73;;
61383;SDS011;63511;49.346;8.798;2022-10-16T00:23:43;4.90;;;1.90;;
61383;SDS011;63511;49.346;8.798;2022-10-16T00:26:10;4.35;;;2.08;;
61383;SDS011;63511;49.346;8.798;2022-10-16T00:28:40;2.63;;;1.95;;
61383;SDS011;63511;49.346;8.798;2022-10-16T00:31:06;4.45;;;1.80;;
61383;SDS011;63511;49.346;8.798;2022-10-16T00:33:33;3.08;;;2.08;;
61383;SDS011;63511;49.346;8.798;2022-10-16T00:36:00;3.65;;;1.77;;
61383;SDS011;63511;49.346;8.798;2022-10-16T00:38:26;8.77;;;3.35;;
61383;SDS011;63511;49.346;8.798;2022-10-16T00:40:56;6.63;;;2.22;;
61383;SDS011;63511;49.346;8.798;2022-10-16T00:46:03;15.55;;;2.03;;
61383;SDS011;63511;49.346;8.798;2022-10-16T00:48:38;4.53;;;1.90;;
61383;SDS011;63511;49.346;8.798;2022-10-16T00:51:03;7.43;;;1.88;;
61383;SDS011;63511;49.346;8.798;2022-10-16T00:53:30;6.13;;;1.65;;
61383;SDS011;63511;49.346;8.798;2022-10-16T00:55:56;7.45;;;2.03;;
61383;SDS011;63511;49.346;8.798;2022-10-16T00:58:21;5.20;;;2.25;;
61383;SDS011;63511;49.346;8.798;2022-10-16T01:00:47;6.13;;;2.10;;
61383;SDS011;63511;49.346;8.798;2022-10-16T01:03:26;5.97;;;1.70;;
61383;SDS011;63511;49.346;8.798;2022-10-16T01:08:43;3.08;;;1.90;;
61383;SDS011;63511;49.346;8.798;2022-10-16T01:14:20;3.60;;;2.13;;
61383;SDS011;63511;49.346;8.798;2022-10-16T01:16:52;5.30;;;2.08;;
61383;SDS011;63511;49.346;8.798;2022-10-16T01:21:58;6.80;;;2.33;;
61383;SDS011;63511;49.346;8.798;2022-10-16T01:24:43;4.85;;;1.70;;
61383;SDS011;63511;49.346;8.798;2022-10-16T01:27:27;5.85;;;1.70;;
61383;SDS011;63511;49.346;8.798;2022-10-16T01:30:02;12.20;;;2.75;;
61383;SDS011;63511;49.346;8.798;2022-10-16T01:32:40;4.32;;;2.20;;
61383;SDS011;63511;49.346;8.798;2022-10-16T01:35:14;3.08;;;2.25;;
61383;SDS011;63511;49.346;8.798;2022-10-16T01:37:48;4.18;;;2.33;;
61383;SDS011;63511;49.346;8.798;2022-10-16T01:40:16;6.82;;;1.85;;
61383;SDS011;63511;49.346;8.798;2022-10-16T01:42:46;4.07;;;2.08;;
61383;SDS011;63511;49.346;8.798;2022-10-16T01:45:16;4.70;;;2.13;;
61383;SDS011;63511;49.346;8.798;2022-10-16T01:47:44;7.47;;;1.67;;
61383;SDS011;63511;49.346;8.798;2022-10-16T01:50:10;5.78;;;1.90;;
61383;SDS011;63511;49.346;8.798;2022-10-16T01:52:40;9.55;;;2.20;;
61383;SDS011;63511;49.346;8.798;2022-10-16T01:55:09;18.90;;;2.50;;
61383;SDS011;63511;49.346;8.798;2022-10-16T01:57:37;8.30;;;2.10;;
61383;SDS011;63511;49.346;8.798;2022-10-16T02:00:09;8.70;;;2.83;;
61383;SDS011;63511;49.346;8.798;2022-10-16T02:02:38;10.75;;;2.22;;
61383;SDS011;63511;49.346;8.798;2022-10-16T02:05:11;9.48;;;2.30;;
61383;SDS011;63511;49.346;8.798;2022-10-16T02:07:45;5.70;;;1.88;;
61383;SDS011;63511;49.346;8.798;2022-10-16T02:10:10;12.60;;;2.83;;
61383;SDS011;63511;49.346;8.798;2022-10-16T02:12:36;14.50;;;2.80;;
61383;SDS011;63511;49.346;8.798;2022-10-16T02:15:08;7.55;;;1.80;;
61383;SDS011;63511;49.346;8.798;2022-10-16T02:17:33;5.40;;;1.70;;
61383;SDS011;63511;49.346;8.798;2022-10-16T02:19:59;3.95;;;1.70;;
61383;SDS011;63511;49.346;8.798;2022-10-16T02:22:32;4.70;;;1.90;;
61383;SDS011;63511;49.346;8.798;2022-10-16T02:27:41;4.68;;;1.63;;
61383;SDS011;63511;49.346;8.798;2022-10-16T02:30:14;13.57;;;2.22;;
61383;SDS011;63511;49.346;8.798;2022-10-16T02:32:46;3.47;;;1.58;;
61383;SDS011;63511;49.346;8.798;2022-10-16T02:35:13;11.30;;;1.67;;
61383;SDS011;63511;49.346;8.798;2022-10-16T02:37:43;2.25;;;1.80;;
61383;SDS011;63511;49.346;8.798;2022-10-16T02:40:12;9.55;;;1.80;;
61383;SDS011;63511;49.346;8.798;2022-10-16T02:42:39;7.05;;;1.83;;
61383;SDS011;63511;49.346;8.798;2022-10-16T02:45:07;3.53;;;1.73;;
61383;SDS011;63511;49.346;8.798;2022-10-16T02:47:36;5.95;;;1.60;;
61383;SDS011;63511;49.346;8.798;2022-10-16T02:50:02;5.38;;;1.70;;
61383;SDS011;63511;49.346;8.798;2022-10-16T02:52:30;7.82;;;2.20;;
61383;SDS011;63511;49.346;8.798;2022-10-16T02:54:56;10.05;;;2.45;;
61383;SDS011;63511;49.346;8.798;2022-10-16T02:57:21;4.90;;;1.75;;
61383;SDS011;63511;49.346;8.798;2022-10-16T02:59:46;3.63;;;1.88;;
61383;SDS011;63511;49.346;8.798;2022-10-16T03:02:14;7.72;;;2.03;;
61383;SDS011;63511;49.346;8.798;2022-10-16T03:04:42;5.07;;;1.90;;
61383;SDS011;63511;49.346;8.798;2022-10-16T03:07:07;7.55;;;2.20;;
61383;SDS011;63511;49.346;8.798;2022-10-16T03:09:32;4.85;;;1.77;;
61383;SDS011;63511;49.346;8.798;2022-10-16T03:12:00;8.05;;;2.40;;
61383;SDS011;63511;49.346;8.798;2022-10-16T03:14:25;10.40;;;2.30;;
61383;SDS011;63511;49.346;8.798;2022-10-16T03:16:53;5.70;;;2.10;;
61383;SDS011;63511;49.346;8.798;2022-10-16T03:19:18;6.95;;;1.60;;
61383;SDS011;63511;49.346;8.798;2022-10-16T03:21:46;14.13;;;2.28;;
61383;SDS011;63511;49.346;8.798;2022-10-16T03:24:11;1.70;;;1.60;;
61383;SDS011;63511;49.346;8.798;2022-10-16T03:26:37;7.60;;;2.00;;
61383;SDS011;63511;49.346;8.798;2022-10-16T03:29:05;14.35;;;1.88;;
61383;SDS011;63511;49.346;8.798;2022-10-16T03:31:32;14.88;;;2.10;;
61383;SDS011;63511;49.346;8.798;2022-10-16T03:34:00;5.38;;;1.95;;
61383;SDS011;63511;49.346;8.798;2022-10-16T03:36:28;12.20;;;2.50;;
61383;SDS011;63511;49.346;8.798;2022-10-16T03:38:56;7.72;;;2.60;;
61383;SDS011;63511;49.346;8.798;2022-10-16T03:41:23;10.52;;;2.33;;
61383;SDS011;63511;49.346;8.798;2022-10-16T03:43:49;4.40;;;1.85;;
61383;SDS011;63511;49.346;8.798;2022-10-16T03:46:16;3.75;;;2.30;;
61383;SDS011;63511;49.346;8.798;2022-10-16T03:48:42;12.02;;;2.35;;
61383;SDS011;63511;49.346;8.798;2022-10-16T03:51:09;5.22;;;1.88;;
61383;SDS011;63511;49.346;8.798;2022-10-16T03:53:36;4.65;;;1.80;;
61383;SDS011;63511;49.346;8.798;2022-10-16T03:56:02;7.90;;;2.97;;
61383;SDS011;63511;49.346;8.798;2022-10-16T03:58:30;6.32;;;2.25;;
61383;SDS011;63511;49.346;8.798;2022-10-16T04:01:02;8.80;;;2.00;;
61383;SDS011;63511;49.346;8.798;2022-10-16T04:03:27;13.38;;;2.65;;
61383;SDS011;63511;49.346;8.798;2022-10-16T04:05:53;2.50;;;1.98;;
61383;SDS011;63511;49.346;8.798;2022-10-16T04:08:18;3.05;;;2.13;;
61383;SDS011;63511;49.346;8.798;2022-10-16T04:10:44;13.95;;;1.98;;
61383;SDS011;63511;49.346;8.798;2022-10-16T04:13:09;14.90;;;1.77;;
61383;SDS011;63511;49.346;8.798;2022-10-16T04:15:37;4.53;;;1.70;;
61383;SDS011;63511;49.346;8.798;2022-10-16T04:18:02;2.63;;;1.98;;
61383;SDS011;63511;49.346;8.798;2022-10-16T04:20:28;8.57;;;1.75;;
61383;SDS011;63511;49.346;8.798;2022-10-16T04:22:54;7.35;;;2.10;;
61383;SDS011;63511;49.346;8.798;2022-10-16T04:25:20;7.10;;;2.00;;
61383;SDS011;63511;49.346;8.798;2022-10-16T04:27:45;7.57;;;2.15;;
61383;SDS011;63511;49.346;8.798;2022-10-16T04:30:15;8.30;;;1.65;;
61383;SDS011;63511;49.346;8.798;2022-10-16T04:32:41;6.90;;;2.10;;
61383;SDS011;63511;49.346;8.798;2022-10-16T04:35:06;7.38;;;1.85;;
61383;SDS011;63511;49.346;8.798;2022-10-16T04:37:32;7.40;;;2.28;;
61383;SDS011;63511;49.346;8.798;2022-10-16T04:39:58;10.50;;;2.00;;
61383;SDS011;63511;49.346;8.798;2022-10-16T04:42:23;8.65;;;1.88;;
61383;SDS011;63511;49.346;8.798;2022-10-16T04:44:51;4.20;;;2.30;;
61383;SDS011;63511;49.346;8.798;2022-10-16T04:47:16;13.43;;;1.92;;
61383;SDS011;63511;49.346;8.798;2022-10-16T04:49:41;8.05;;;2.25;;
61383;SDS011;63511;49.346;8.798;2022-10-16T04:52:07;12.05;;;1.70;;
61383;SDS011;63511;49.346;8.798;2022-10-16T04:54:34;15.38;;;3.00;;
61383;SDS011;63511;49.346;8.798;2022-10-16T04:56:59;9.48;;;2.25;;
61383;SDS011;63511;49.346;8.798;2022-10-16T04:59:24;8.52;;;2.10;;
61383;SDS011;63511;49.346;8.798;2022-10-16T05:01:50;7.50;;;1.95;;
61383;SDS011;63511;49.346;8.798;2022-10-16T05:04:17;8.02;;;1.88;;
61383;SDS011;63511;49.346;8.798;2022-10-16T05:06:43;9.13;;;1.83;;
61383;SDS011;63511;49.346;8.798;2022-10-16T05:09:08;3.92;;;2.20;;
61383;SDS011;63511;49.346;8.798;2022-10-16T05:11:34;7.47;;;1.92;;
61383;SDS011;63511;49.346;8.798;2022-10-16T05:14:02;9.43;;;2.08;;
61383;SDS011;63511;49.346;8.798;2022-10-16T05:16:27;4.13;;;1.45;;
61383;SDS011;63511;49.346;8.798;2022-10-16T05:18:53;12.00;;;3.67;;
61383;SDS011;63511;49.346;8.798;2022-10-16T05:21:19;10.63;;;1.95;;
61383;SDS011;63511;49.346;8.798;2022-10-16T05:23:47;6.68;;;1.80;;
61383;SDS011;63511;49.346;8.798;2022-10-16T05:26:17;5.28;;;1.88;;
61383;SDS011;63511;49.346;8.798;2022-10-16T05:28:42;7.78;;;2.08;;
61383;SDS011;63511;49.346;8.798;2022-10-16T05:31:10;2.75;;;1.65;;
61383;SDS011;63511;49.346;8.798;2022-10-16T05:33:35;4.03;;;1.60;;
61383;SDS011;63511;49.346;8.798;2022-10-16T05:36:04;3.83;;;1.60;;
61383;SDS011;63511;49.346;8.798;2022-10-16T05:38:32;7.68;;;1.38;;
61383;SDS011;63511;49.346;8.798;2022-10-16T05:40:57;8.55;;;1.92;;
61383;SDS011;63511;49.346;8.798;2022-10-16T05:43:23;4.10;;;1.52;;
61383;SDS011;63511;49.346;8.798;2022-10-16T05:48:26;1.83;;;1.65;;
61383;SDS011;63511;49.346;8.798;2022-10-16T05:51:01;3.60;;;1.77;;
61383;SDS011;63511;49.346;8.798;2022-10-16T05:53:35;4.88;;;1.98;;
61383;SDS011;63511;49.346;8.798;2022-10-16T05:56:01;7.18;;;2.75;;
61383;SDS011;63511;49.346;8.798;2022-10-16T05:58:33;1.45;;;1.35;;
61383;SDS011;63511;49.346;8.798;2022-10-16T06:01:04;2.17;;;1.67;;
61383;SDS011;63511;49.346;8.798;2022-10-16T06:03:32;7.05;;;1.77;;
61383;SDS011;63511;49.346;8.798;2022-10-16T06:05:58;4.93;;;2.25;;
61383;SDS011;63511;49.346;8.798;2022-10-16T06:08:31;6.40;;;2.28;;
61383;SDS011;63511;49.346;8.798;2022-10-16T06:11:16;11.77;;;2.78;;
61383;SDS011;63511;49.346;8.798;2022-10-16T06:13:49;7.97;;;2.70;;
61383;SDS011;63511;49.346;8.798;2022-10-16T06:16:15;5.32;;;2.90;;
61383;SDS011;63511;49.346;8.798;2022-10-16T06:18:40;9.48;;;2.67;;
61383;SDS011;63511;49.346;8.798;2022-10-16T06:21:07;5.25;;;2.13;;
61383;SDS011;63511;49.346;8.798;2022-10-16T06:23:34;9.52;;;2.03;;
61383;SDS011;63511;49.346;8.798;2022-10-16T06:26:05;7.40;;;2.55;;
61383;SDS011;63511;49.346;8.798;2022-10-16T06:28:38;8.32;;;2.13;;
61383;SDS011;63511;49.346;8.798;2022-10-16T06:31:07;4.32;;;3.05;;
61383;SDS011;63511;49.346;8.798;2022-10-16T06:33:33;13.52;;;2.70;;
61383;SDS011;63511;49.346;8.798;2022-10-16T06:36:04;3.38;;;2.38;;
61383;SDS011;63511;49.346;8.798;2022-10-16T06:38:37;6.30;;;2.60;;
61383;SDS011;63511;49.346;8.798;2022-10-16T06:41:06;8.18;;;5.03;;
61383;SDS011;63511;49.346;8.798;2022-10-16T06:43:37;7.47;;;4.47;;
61383;SDS011;63511;49.346;8.798;2022-10-16T06:46:03;7.88;;;3.42;;
61383;SDS011;63511;49.346;8.798;2022-10-16T06:48:30;4.65;;;2.40;;
61383;SDS011;63511;49.346;8.798;2022-10-16T06:53:21;3.97;;;2.33;;
61383;SDS011;63511;49.346;8.798;2022-10-16T06:55:46;1.60;;;1.40;;
61383;SDS011;63511;49.346;8.798;2022-10-16T06:58:14;4.35;;;2.83;;
61383;SDS011;63511;49.346;8.798;2022-10-16T07:00:39;2.80;;;1.90;;
61383;SDS011;63511;49.346;8.798;2022-10-16T07:03:07;6.75;;;1.83;;
61383;SDS011;63511;49.346;8.798;2022-10-16T07:05:38;8.85;;;2.40;;
61383;SDS011;63511;49.346;8.798;2022-10-16T07:08:07;3.47;;;2.10;;
61383;SDS011;63511;49.346;8.798;2022-10-16T07:10:35;7.10;;;2.05;;
61383;SDS011;63511;49.346;8.798;2022-10-16T07:13:03;5.80;;;1.95;;
61383;SDS011;63511;49.346;8.798;2022-10-16T07:15:32;2.78;;;2.40;;
61383;SDS011;63511;49.346;8.798;2022-10-16T07:18:01;3.85;;;2.53;;
61383;SDS011;63511;49.346;8.798;2022-10-16T07:20:29;4.07;;;2.25;;
61383;SDS011;63511;49.346;8.798;2022-10-16T07:22:54;2.97;;;2.25;;
61383;SDS011;63511;49.346;8.798;2022-10-16T07:25:22;4.28;;;2.00;;
61383;SDS011;63511;49.346;8.798;2022-10-16T07:27:47;3.97;;;2.13;;
61383;SDS011;63511;49.346;8.798;2022-10-16T07:30:15;8.70;;;1.80;;
61383;SDS011;63511;49.346;8.798;2022-10-16T07:32:41;5.13;;;3.13;;
61383;SDS011;63511;49.346;8.798;2022-10-16T07:35:08;10.20;;;2.03;;
61383;SDS011;63511;49.346;8.798;2022-10-16T07:37:33;2.42;;;2.08;;
61383;SDS011;63511;49.346;8.798;2022-10-16T07:39:59;1.85;;;1.75;;
61383;SDS011;63511;49.346;8.798;2022-10-16T07:42:24;4.43;;;1.88;;
61383;SDS011;63511;49.346;8.798;2022-10-16T07:44:50;7.65;;;2.40;;
61383;SDS011;63511;49.346;8.798;2022-10-16T07:47:20;12.85;;;2.38;;
61383;SDS011;63511;49.346;8.798;2022-10-16T07:49:45;2.33;;;1.60;;
61383;SDS011;63511;49.346;8.798;2022-10-16T07:52:13;5.97;;;1.90;;
61383;SDS011;63511;49.346;8.798;2022-10-16T07:54:46;4.35;;;1.67;;
61383;SDS011;63511;49.346;8.798;2022-10-16T07:57:16;3.30;;;1.40;;
61383;SDS011;63511;49.346;8.798;2022-10-16T07:59:44;4.25;;;1.45;;
61383;SDS011;63511;49.346;8.798;2022-10-16T08:02:10;5.28;;;1.52;;
61383;SDS011;63511;49.346;8.798;2022-10-16T08:04:36;4.32;;;1.50;;
61383;SDS011;63511;49.346;8.798;2022-10-16T08:07:01;2.03;;;1.40;;
61383;SDS011;63511;49.346;8.798;2022-10-16T08:09:31;2.05;;;1.50;;
61383;SDS011;63511;49.346;8.798;2022-10-16T08:11:59;4.88;;;1.30;;
61383;SDS011;63511;49.346;8.798;2022-10-16T08:14:27;2.83;;;1.42;;
61383;SDS011;63511;49.346;8.798;2022-10-16T08:16:52;5.78;;;1.58;;
61383;SDS011;63511;49.346;8.798;2022-10-16T08:19:20;9.20;;;1.52;;
61383;SDS011;63511;49.346;8.798;2022-10-16T08:21:49;2.55;;;1.40;;
61383;SDS011;63511;49.346;8.798;2022-10-16T08:26:41;5.10;;;1.60;;
61383;SDS011;63511;49.346;8.798;2022-10-16T08:29:09;4.05;;;1.33;;
61383;SDS011;63511;49.346;8.798;2022-10-16T08:31:35;1.42;;;1.30;;
61383;SDS011;63511;49.346;8.798;2022-10-16T08:34:02;4.10;;;1.80;;
61383;SDS011;63511;49.346;8.798;2022-10-16T08:36:27;1.73;;;1.20;;
61383;SDS011;63511;49.346;8.798;2022-10-16T08:38:58;7.15;;;1.83;;
61383;SDS011;63511;49.346;8.798;2022-10-16T08:49:16;4.00;;;1.10;;
61383;SDS011;63511;49.346;8.798;2022-10-16T08:51:44;3.72;;;1.30;;
61383;SDS011;63511;49.346;8.798;2022-10-16T08:54:34;4.35;;;1.55;;
61383;SDS011;63511;49.346;8.798;2022-10-16T08:57:19;7.90;;;1.25;;
61383;SDS011;63511;49.346;8.798;2022-10-16T08:59:46;6.03;;;1.40;;
61383;SDS011;63511;49.346;8.798;2022-10-16T09:17:52;1.33;;;1.23;;
61383;SDS011;63511;49.346;8.798;2022-10-16T09:25:29;3.78;;;1.30;;
61383;SDS011;63511;49.346;8.798;2022-10-16T09:27:58;5.30;;;1.67;;
61383;SDS011;63511;49.346;8.798;2022-10-16T09:30:26;7.60;;;1.65;;
61383;SDS011;63511;49.346;8.798;2022-10-16T09:32:54;5.70;;;1.50;;
61383;SDS011;63511;49.346;8.798;2022-10-16T09:35:24;4.05;;;1.40;;
61383;SDS011;63511;49.346;8.798;2022-10-16T09:37:58;8.27;;;1.45;;
61383;SDS011;63511;49.346;8.798;2022-10-16T09:40:25;5.10;;;1.50;;
61383;SDS011;63511;49.346;8.798;2022-10-16T09:42:56;6.97;;;1.85;;
61383;SDS011;63511;49.346;8.798;2022-10-16T09:45:27;4.28;;;1.70;;
61383;SDS011;63511;49.346;8.798;2022-10-16T09:47:57;6.57;;;1.58;;
61383;SDS011;63511;49.346;8.798;2022-10-16T09:50:26;5.72;;;1.70;;
61383;SDS011;63511;49.346;8.798;2022-10-16T09:53:14;3.72;;;2.30;;
61383;SDS011;63511;49.346;8.798;2022-10-16T09:55:49;4.07;;;2.28;;
61383;SDS011;63511;49.346;8.798;2022-10-16T09:58:16;5.63;;;1.90;;
61383;SDS011;63511;49.346;8.798;2022-10-16T10:00:53;3.88;;;2.30;;
61383;SDS011;63511;49.346;8.798;2022-10-16T10:03:41;5.25;;;1.45;;
61383;SDS011;63511;49.346;8.798;2022-10-16T10:06:18;4.00;;;1.60;;
61383;SDS011;63511;49.346;8.798;2022-10-16T10:30:27;6.28;;;1.73;;
61383;SDS011;63511;49.346;8.798;2022-10-16T10:33:11;4.18;;;1.40;;
61383;SDS011;63511;49.346;8.798;2022-10-16T10:36:32;1.83;;;1.42;;
61383;SDS011;63511;49.346;8.798;2022-10-16T10:41:26;2.50;;;1.42;;
61383;SDS011;63511;49.346;8.798;2022-10-16T10:49:14;7.82;;;1.77;;
61383;SDS011;63511;49.346;8.798;2022-10-16T10:59:27;3.25;;;1.25;;
61383;SDS011;63511;49.346;8.798;2022-10-16T11:07:42;5.60;;;1.50;;
61383;SDS011;63511;49.346;8.798;2022-10-16T11:12:49;1.75;;;1.42;;
61383;SDS011;63511;49.346;8.798;2022-10-16T11:15:24;6.30;;;1.70;;
61383;SDS011;63511;49.346;8.798;2022-10-16T11:21:08;4.43;;;1.80;;
61383;SDS011;63511;49.346;8.798;2022-10-16T11:23:50;4.03;;;1.50;;
61383;SDS011;63511;49.346;8.798;2022-10-16T11:26:23;3.75;;;1.98;;
61383;SDS011;63511;49.346;8.798;2022-10-16T11:28:55;6.05;;;1.52;;
61383;SDS011;63511;49.346;8.798;2022-10-16T11:31:34;3.97;;;1.95;;
61383;SDS011;63511;49.346;8.798;2022-10-16T11:34:06;10.20;;;1.55;;
61383;SDS011;63511;49.346;8.798;2022-10-16T11:37:04;3.25;;;1.50;;
61383;SDS011;63511;49.346;8.798;2022-10-16T11:39:35;2.17;;;1.42;;
61383;SDS011;63511;49.346;8.798;2022-10-16T11:42:16;7.10;;;2.05;;
61383;SDS011;63511;49.346;8.798;2022-10-16T11:47:45;3.03;;;1.85;;
61383;SDS011;63511;49.346;8.798;2022-10-16T11:55:52;6.00;;;1.45;;
61383;SDS011;63511;49.346;8.798;2022-10-16T12:03:30;7.85;;;1.85;;
61383;SDS011;63511;49.346;8.798;2022-10-16T12:06:06;3.20;;;1.52;;
61383;SDS011;63511;49.346;8.798;2022-10-16T12:08:36;5.97;;;1.60;;
61383;SDS011;63511;49.346;8.798;2022-10-16T12:11:07;3.38;;;1.50;;
61383;SDS011;63511;49.346;8.798;2022-10-16T12:13:44;4.32;;;1.27;;
61383;SDS011;63511;49.346;8.798;2022-10-16T12:18:42;4.63;;;1.40;;
61383;SDS011;63511;49.346;8.798;2022-10-16T12:21:10;1.75;;;1.23;;
61383;SDS011;63511;49.346;8.798;2022-10-16T12:23:53;4.85;;;1.60;;
61383;SDS011;63511;49.346;8.798;2022-10-16T12:26:36;2.97;;;1.73;;
61383;SDS011;63511;49.346;8.798;2022-10-16T12:31:45;4.82;;;1.67;;
61383;SDS011;63511;49.346;8.798;2022-10-16T12:37:13;4.55;;;1.80;;
61383;SDS011;63511;49.346;8.798;2022-10-16T12:39:44;8.98;;;1.70;;
61383;SDS011;63511;49.346;8.798;2022-10-16T12:49:52;6.80;;;2.22;;
61383;SDS011;63511;49.346;8.798;2022-10-16T12:52:34;5.15;;;1.30;;
61383;SDS011;63511;49.346;8.798;2022-10-16T12:55:04;1.67;;;1.55;;
61383;SDS011;63511;49.346;8.798;2022-10-16T13:20:06;5.35;;;1.30;;
61383;SDS011;63511;49.346;8.798;2022-10-16T13:30:26;2.10;;;1.40;;
61383;SDS011;63511;49.346;8.798;2022-10-16T13:33:36;2.15;;;1.33;;
61383;SDS011;63511;49.346;8.798;2022-10-16T13:35:49;6.13;;;1.60;;
61383;SDS011;63511;49.346;8.798;2022-10-16T13:38:18;8.15;;;1.50;;
61383;SDS011;63511;49.346;8.798;2022-10-16T13:40:59;5.13;;;1.73;;
61383;SDS011;63511;49.346;8.798;2022-10-16T13:46:14;7.80;;;1.90;;
61383;SDS011;63511;49.346;8.798;2022-10-16T13:48:44;4.20;;;1.60;;
61383;SDS011;63511;49.346;8.798;2022-10-16T13:51:21;2.22;;;1.50;;
61383;SDS011;63511;49.346;8.798;2022-10-16T13:53:46;7.55;;;1.58;;
61383;SDS011;63511;49.346;8.798;2022-10-16T13:56:13;2.80;;;1.67;;
61383;SDS011;63511;49.346;8.798;2022-10-16T13:58:40;11.07;;;2.00;;
61383;SDS011;63511;49.346;8.798;2022-10-16T14:01:16;3.83;;;1.80;;
61383;SDS011;63511;49.346;8.798;2022-10-16T14:03:44;4.75;;;1.90;;
61383;SDS011;63511;49.346;8.798;2022-10-16T14:06:12;6.40;;;1.70;;
61383;SDS011;63511;49.346;8.798;2022-10-16T14:08:59;6.35;;;2.00;;
61383;SDS011;63511;49.346;8.798;2022-10-16T14:11:29;5.25;;;2.13;;
61383;SDS011;63511;49.346;8.798;2022-10-16T14:13:55;4.15;;;1.80;;
61383;SDS011;63511;49.346;8.798;2022-10-16T14:16:21;6.32;;;2.00;;
61383;SDS011;63511;49.346;8.798;2022-10-16T14:18:56;5.53;;;1.92;;
61383;SDS011;63511;49.346;8.798;2022-10-16T14:21:24;6.32;;;1.83;;
61383;SDS011;63511;49.346;8.798;2022-10-16T14:23:51;12.48;;;2.60;;
61383;SDS011;63511;49.346;8.798;2022-10-16T14:26:20;6.40;;;2.13;;
61383;SDS011;63511;49.346;8.798;2022-10-16T14:28:49;4.88;;;2.13;;
61383;SDS011;63511;49.346;8.798;2022-10-16T14:31:30;5.32;;;1.60;;
61383;SDS011;63511;49.346;8.798;2022-10-16T14:33:57;5.50;;;1.77;;
61383;SDS011;63511;49.346;8.798;2022-10-16T14:36:24;8.63;;;1.88;;
61383;SDS011;63511;49.346;8.798;2022-10-16T14:38:59;7.35;;;1.83;;
61383;SDS011;63511;49.346;8.798;2022-10-16T14:41:31;4.18;;;1.60;;
61383;SDS011;63511;49.346;8.798;2022-10-16T14:44:05;6.78;;;2.08;;
61383;SDS011;63511;49.346;8.798;2022-10-16T14:46:32;11.05;;;3.08;;
61383;SDS011;63511;49.346;8.798;2022-10-16T14:51:35;11.68;;;3.00;;
61383;SDS011;63511;49.346;8.798;2022-10-16T14:54:10;5.38;;;2.40;;
61383;SDS011;63511;49.346;8.798;2022-10-16T14:59:22;4.95;;;2.90;;
61383;SDS011;63511;49.346;8.798;2022-10-16T15:01:49;9.15;;;2.10;;
61383;SDS011;63511;49.346;8.798;2022-10-16T15:04:14;14.00;;;2.90;;
61383;SDS011;63511;49.346;8.798;2022-10-16T15:06:41;6.10;;;2.40;;
61383;SDS011;63511;49.346;8.798;2022-10-16T15:09:06;10.95;;;2.40;;
61383;SDS011;63511;49.346;8.798;2022-10-16T15:11:32;6.38;;;2.15;;
61383;SDS011;63511;49.346;8.798;2022-10-16T15:13:58;5.90;;;2.53;;
61383;SDS011;63511;49.346;8.798;2022-10-16T15:16:23;8.77;;;3.75;;
61383;SDS011;63511;49.346;8.798;2022-10-16T15:18:49;8.15;;;2.17;;
61383;SDS011;63511;49.346;8.798;2022-10-16T15:21:20;14.43;;;2.42;;
61383;SDS011;63511;49.346;8.798;2022-10-16T15:23:49;10.32;;;3.28;;
61383;SDS011;63511;49.346;8.798;2022-10-16T15:26:15;15.35;;;2.92;;
61383;SDS011;63511;49.346;8.798;2022-10-16T15:28:41;12.75;;;3.25;;
61383;SDS011;63511;49.346;8.798;2022-10-16T15:31:06;12.80;;;3.70;;
61383;SDS011;63511;49.346;8.798;2022-10-16T15:33:36;11.15;;;3.22;;
61383;SDS011;63511;49.346;8.798;2022-10-16T15:36:04;10.82;;;2.88;;
61383;SDS011;63511;49.346;8.798;2022-10-16T15:38:32;9.52;;;3.58;;
61383;SDS011;63511;49.346;8.798;2022-10-16T15:41:00;14.98;;;3.22;;
61383;SDS011;63511;49.346;8.798;2022-10-16T15:43:25;9.18;;;2.55;;
61383;SDS011;63511;49.346;8.798;2022-10-16T15:46:24;26.88;;;3.13;;
61383;SDS011;63511;49.346;8.798;2022-10-16T15:48:44;13.02;;;4.25;;
61383;SDS011;63511;49.346;8.798;2022-10-16T15:51:09;12.05;;;2.47;;
61383;SDS011;63511;49.346;8.798;2022-10-16T15:53:35;10.68;;;2.58;;
61383;SDS011;63511;49.346;8.798;2022-10-16T15:56:01;16.10;;;2.83;;
61383;SDS011;63511;49.346;8.798;2022-10-16T15:58:30;12.25;;;2.53;;
61383;SDS011;63511;49.346;8.798;2022-10-16T16:00:56;12.27;;;2.83;;
61383;SDS011;63511;49.346;8.798;2022-10-16T16:03:25;16.75;;;2.70;;
61383;SDS011;63511;49.346;8.798;2022-10-16T16:05:51;6.68;;;2.92;;
61383;SDS011;63511;49.346;8.798;2022-10-16T16:08:17;8.80;;;3.42;;
61383;SDS011;63511;49.346;8.798;2022-10-16T16:10:42;5.60;;;2.72;;
61383;SDS011;63511;49.346;8.798;2022-10-16T16:13:08;7.90;;;2.67;;
61383;SDS011;63511;49.346;8.798;2022-10-16T16:15:33;13.63;;;4.20;;
61383;SDS011;63511;49.346;8.798;2022-10-16T16:17:58;7.97;;;3.72;;
61383;SDS011;63511;49.346;8.798;2022-10-16T16:20:26;17.10;;;3.83;;
61383;SDS011;63511;49.346;8.798;2022-10-16T16:22:52;9.75;;;3.25;;
61383;SDS011;63511;49.346;8.798;2022-10-16T16:25:17;20.00;;;5.00;;
61383;SDS011;63511;49.346;8.798;2022-10-16T16:27:43;11.73;;;2.40;;
61383;SDS011;63511;49.346;8.798;2022-10-16T16:30:10;21.20;;;3.33;;
61383;SDS011;63511;49.346;8.798;2022-10-16T16:32:36;10.57;;;3.08;;
61383;SDS011;63511;49.346;8.798;2022-10-16T16:35:04;11.02;;;3.05;;
61383;SDS011;63511;49.346;8.798;2022-10-16T16:39:57;15.37;;;2.70;;
61383;SDS011;63511;49.346;8.798;2022-10-16T16:42:24;14.50;;;2.95;;
61383;SDS011;63511;49.346;8.798;2022-10-16T16:44:50;15.50;;;2.78;;
61383;SDS011;63511;49.346;8.798;2022-10-16T16:47:16;15.32;;;2.83;;
61383;SDS011;63511;49.346;8.798;2022-10-16T16:49:41;11.48;;;2.45;;
61383;SDS011;63511;49.346;8.798;2022-10-16T16:52:07;9.32;;;2.85;;
61383;SDS011;63511;49.346;8.798;2022-10-16T16:54:32;11.60;;;3.10;;
61383;SDS011;63511;49.346;8.798;2022-10-16T16:57:00;8.43;;;3.83;;
61383;SDS011;63511;49.346;8.798;2022-10-16T16:59:25;8.27;;;3.22;;
61383;SDS011;63511;49.346;8.798;2022-10-16T17:01:51;10.07;;;2.88;;
61383;SDS011;63511;49.346;8.798;2022-10-16T17:04:16;6.95;;;2.53;;
61383;SDS011;63511;49.346;8.798;2022-10-16T17:06:41;8.18;;;2.60;;
61383;SDS011;63511;49.346;8.798;2022-10-16T17:09:07;7.32;;;2.38;;
61383;SDS011;63511;49.346;8.798;2022-10-16T17:11:33;8.25;;;2.67;;
61383;SDS011;63511;49.346;8.798;2022-10-16T17:13:59;16.60;;;4.80;;
61383;SDS011;63511;49.346;8.798;2022-10-16T17:16:26;15.10;;;3.45;;
61383;SDS011;63511;49.346;8.798;2022-10-16T17:18:54;10.02;;;3.10;;
61383;SDS011;63511;49.346;8.798;2022-10-16T17:21:20;20.55;;;3.50;;
61383;SDS011;63511;49.346;8.798;2022-10-16T17:23:46;10.80;;;3.55;;
61383;SDS011;63511;49.346;8.798;2022-10-16T17:26:15;12.45;;;2.90;;
61383;SDS011;63511;49.346;8.798;2022-10-16T17:28:41;11.75;;;3.10;;
61383;SDS011;63511;49.346;8.798;2022-10-16T17:31:15;10.65;;;3.00;;
61383;SDS011;63511;49.346;8.798;2022-10-16T17:33:42;12.75;;;3.10;;
61383;SDS011;63511;49.346;8.798;2022-10-16T17:36:08;13.05;;;3.42;;
61383;SDS011;63511;49.346;8.798;2022-10-16T17:38:35;12.93;;;3.38;;
61383;SDS011;63511;49.346;8.798;2022-10-16T17:41:13;25.90;;;6.20;;
61383;SDS011;63511;49.346;8.798;2022-10-16T17:43:41;23.00;;;7.72;;
61383;SDS011;63511;49.346;8.798;2022-10-16T17:46:09;28.10;;;6.10;;